sensor_id;sensor_type;location;lat;lon;timestamp;temperature;humidity
24436;DHT22;12616;52.470;13.436;2024-03-25T15:00:23;9.20;1.00
24436;DHT22;12616;52.470;13.436;2024-03-25T15:02:50;9.20;64.70
24436;DHT22;12616;52.470;13.436;2024-03-25T15:05:30;9.10;1.00
24436;DHT22;12616;52.470;13.436;2024-03-25T15:07:58;9.20;1.00
24436;DHT22;12616;52.470;13.436;2024-03-25T15:10:51;9.20;1.00
24436;DHT22;12616;52.470;13.436;2024-03-25T15:13:40;9.30;1.00
24436;DHT22;12616;52.470;13.436;2024-03-25T15:16:19;9.30;1.00
24436;DHT22;12616;52.470;13.436;2024-03-25T15:19:08;9.20;1.00
24436;DHT22;12616;52.470;13.436;2024-03-25T15:30:17;9.20;1.00
24436;DHT22;12616;52.470;13.436;2024-03-25T15:42:32;8.70;25.90
24436;DHT22;12616;52.470;13.436;2024-03-25T15:45:07;8.40;99.90
24436;DHT22;12616;52.470;13.436;2024-03-25T15:47:54;8.20;99.90
24436;DHT22;12616;52.470;13.436;2024-03-25T15:55:23;7.90;1.00
24436;DHT22;12616;52.470;13.436;2024-03-25T15:57:52;7.70;99.90
24436;DHT22;12616;52.470;13.436;2024-03-25T16:00:19;7.80;1.00
24436;DHT22;12616;52.470;13.436;2024-03-25T16:03:02;7.80;1.00
24436;DHT22;12616;52.470;13.436;2024-03-25T16:05:31;7.80;1.00
24436;DHT22;12616;52.470;13.436;2024-03-25T16:08:00;7.80;99.90
24436;DHT22;12616;52.470;13.436;2024-03-25T16:10:29;7.80;5.30
24436;DHT22;12616;52.470;13.436;2024-03-25T16:12:58;7.80;29.10
24436;DHT22;12616;52.470;13.436;2024-03-25T16:15:24;7.80;15.40
24436;DHT22;12616;52.470;13.436;2024-03-25T16:17:58;7.70;19.80
24436;DHT22;12616;52.470;13.436;2024-03-25T16:20:45;7.80;1.00
24436;DHT22;12616;52.470;13.436;2024-03-25T16:23:16;7.80;1.00
24436;DHT22;12616;52.470;13.436;2024-03-25T16:25:48;7.80;1.00
24436;DHT22;12616;52.470;13.436;2024-03-25T16:31:07;7.80;99.90
24436;DHT22;12616;52.470;13.436;2024-03-25T16:33:33;7.80;99.90
24436;DHT22;12616;52.470;13.436;2024-03-25T16:36:10;7.80;99.90
24436;DHT22;12616;52.470;13.436;2024-03-25T16:43:53;8.00;99.90
24436;DHT22;12616;52.470;13.436;2024-03-25T16:54:46;7.80;99.90
24436;DHT22;12616;52.470;13.436;2024-03-25T16:57:12;7.80;1.00
24436;DHT22;12616;52.470;13.436;2024-03-25T16:59:38;7.90;1.00
24436;DHT22;12616;52.470;13.436;2024-03-25T17:02:03;7.80;1.00
24436;DHT22;12616;52.470;13.436;2024-03-25T17:04:29;7.80;1.00
24436;DHT22;12616;52.470;13.436;2024-03-25T17:06:55;7.80;1.00
24436;DHT22;12616;52.470;13.436;2024-03-25T17:09:21;7.80;1.00
24436;DHT22;12616;52.470;13.436;2024-03-25T17:11:48;7.80;1.00
24436;DHT22;12616;52.470;13.436;2024-03-25T17:14:14;7.80;1.50
24436;DHT22;12616;52.470;13.436;2024-03-25T17:16:40;7.80;1.00
24436;DHT22;12616;52.470;13.436;2024-03-25T17:19:06;7.80;1.00
24436;DHT22;12616;52.470;13.436;2024-03-25T17:21:32;7.80;58.60
24436;DHT22;12616;52.470;13.436;2024-03-25T17:23:58;7.80;1.00
24436;DHT22;12616;52.470;13.436;2024-03-25T17:26:23;7.80;1.00
24436;DHT22;12616;52.470;13.436;2024-03-25T17:28:51;7.70;1.00
24436;DHT22;12616;52.470;13.436;2024-03-25T17:31:16;7.80;1.00
24436;DHT22;12616;52.470;13.436;2024-03-25T17:33:43;7.80;1.00
24436;DHT22;12616;52.470;13.436;2024-03-25T17:36:08;7.70;1.00
24436;DHT22;12616;52.470;13.436;2024-03-25T17:38:34;7.80;1.00
24436;DHT22;12616;52.470;13.436;2024-03-25T17:41:00;7.70;1.00
24436;DHT22;12616;52.470;13.436;2024-03-25T17:43:26;7.70;1.00
24436;DHT22;12616;52.470;13.436;2024-03-25T17:45:53;7.70;1.00
24436;DHT22;12616;52.470;13.436;2024-03-25T17:48:20;7.70;1.00
24436;DHT22;12616;52.470;13.436;2024-03-25T17:50:52;7.70;1.00
24436;DHT22;12616;52.470;13.436;2024-03-25T17:53:17;7.70;1.00
24436;DHT22;12616;52.470;13.436;2024-03-25T17:55:43;7.70;1.00
24436;DHT22;12616;52.470;13.436;2024-03-25T17:58:09;7.60;1.00
24436;DHT22;12616;52.470;13.436;2024-03-25T18:00:35;7.50;28.50
24436;DHT22;12616;52.470;13.436;2024-03-25T18:03:02;7.50;31.30
24436;DHT22;12616;52.470;13.436;2024-03-25T18:05:27;7.40;99.90
24436;DHT22;12616;52.470;13.436;2024-03-25T18:07:53;7.50;99.90
24436;DHT22;12616;52.470;13.436;2024-03-25T18:10:19;7.40;99.90
24436;DHT22;12616;52.470;13.436;2024-03-25T18:12:45;7.40;99.90
24436;DHT22;12616;52.470;13.436;2024-03-25T18:15:10;7.50;94.50
24436;DHT22;12616;52.470;13.436;2024-03-25T18:17:36;7.50;45.50
24436;DHT22;12616;52.470;13.436;2024-03-25T18:20:03;7.40;1.00
24436;DHT22;12616;52.470;13.436;2024-03-25T18:22:29;7.40;1.00
24436;DHT22;12616;52.470;13.436;2024-03-25T18:24:55;7.40;1.00
24436;DHT22;12616;52.470;13.436;2024-03-25T18:27:21;7.40;1.00
24436;DHT22;12616;52.470;13.436;2024-03-25T18:29:47;7.50;99.90
24436;DHT22;12616;52.470;13.436;2024-03-25T18:32:13;7.40;1.00
24436;DHT22;12616;52.470;13.436;2024-03-25T18:34:39;7.40;1.00
24436;DHT22;12616;52.470;13.436;2024-03-25T18:37:06;7.50;1.00
24436;DHT22;12616;52.470;13.436;2024-03-25T18:39:32;7.40;1.00
24436;DHT22;12616;52.470;13.436;2024-03-25T18:41:58;7.40;1.00
24436;DHT22;12616;52.470;13.436;2024-03-25T18:44:27;7.50;1.00
24436;DHT22;12616;52.470;13.436;2024-03-25T18:46:53;7.50;1.00
24436;DHT22;12616;52.470;13.436;2024-03-25T18:49:18;7.50;1.00
24436;DHT22;12616;52.470;13.436;2024-03-25T18:51:44;7.50;1.00
24436;DHT22;12616;52.470;13.436;2024-03-25T18:54:11;7.40;1.00
24436;DHT22;12616;52.470;13.436;2024-03-25T18:56:37;7.50;9.40
24436;DHT22;12616;52.470;13.436;2024-03-25T18:59:03;7.40;1.00
24436;DHT22;12616;52.470;13.436;2024-03-25T19:01:28;7.40;1.00
24436;DHT22;12616;52.470;13.436;2024-03-25T19:03:54;7.40;50.60
24436;DHT22;12616;52.470;13.436;2024-03-25T19:06:20;7.40;41.60
24436;DHT22;12616;52.470;13.436;2024-03-25T19:08:45;7.40;1.00
24436;DHT22;12616;52.470;13.436;2024-03-25T19:11:13;7.40;56.60
24436;DHT22;12616;52.470;13.436;2024-03-25T19:13:38;7.30;99.90
24436;DHT22;12616;52.470;13.436;2024-03-25T19:16:04;7.30;1.00
24436;DHT22;12616;52.470;13.436;2024-03-25T19:18:30;7.30;1.00
24436;DHT22;12616;52.470;13.436;2024-03-25T19:20:56;7.20;99.90
24436;DHT22;12616;52.470;13.436;2024-03-25T19:23:21;7.20;1.00
24436;DHT22;12616;52.470;13.436;2024-03-25T19:25:47;7.10;1.00
24436;DHT22;12616;52.470;13.436;2024-03-25T19:28:15;7.10;99.90
24436;DHT22;12616;52.470;13.436;2024-03-25T19:30:41;7.10;1.00
24436;DHT22;12616;52.470;13.436;2024-03-25T19:33:07;7.10;99.90
24436;DHT22;12616;52.470;13.436;2024-03-25T19:35:33;7.00;1.00
24436;DHT22;12616;52.470;13.436;2024-03-25T19:37:58;7.00;99.90
24436;DHT22;12616;52.470;13.436;2024-03-25T19:40:24;7.00;99.90
24436;DHT22;12616;52.470;13.436;2024-03-25T19:42:50;7.00;1.00
24436;DHT22;12616;52.470;13.436;2024-03-25T19:45:17;7.10;99.90
24436;DHT22;12616;52.470;13.436;2024-03-25T19:47:43;7.00;1.00
24436;DHT22;12616;52.470;13.436;2024-03-25T19:50:09;6.90;30.20
24436;DHT22;12616;52.470;13.436;2024-03-25T19:52:35;6.90;99.90
24436;DHT22;12616;52.470;13.436;2024-03-25T19:55:10;6.80;1.00
24436;DHT22;12616;52.470;13.436;2024-03-25T19:57:35;6.70;1.00
24436;DHT22;12616;52.470;13.436;2024-03-25T20:00:02;6.70;1.00
24436;DHT22;12616;52.470;13.436;2024-03-25T20:02:31;6.80;1.00
24436;DHT22;12616;52.470;13.436;2024-03-25T20:04:57;6.80;99.90
24436;DHT22;12616;52.470;13.436;2024-03-25T20:07:23;6.70;99.90
24436;DHT22;12616;52.470;13.436;2024-03-25T20:09:54;6.60;99.90
24436;DHT22;12616;52.470;13.436;2024-03-25T20:12:20;6.50;1.00
24436;DHT22;12616;52.470;13.436;2024-03-25T20:14:46;6.50;1.00
24436;DHT22;12616;52.470;13.436;2024-03-25T20:17:12;6.40;1.00
24436;DHT22;12616;52.470;13.436;2024-03-25T20:19:39;6.40;1.00
24436;DHT22;12616;52.470;13.436;2024-03-25T20:22:05;6.40;1.00
24436;DHT22;12616;52.470;13.436;2024-03-25T20:24:34;6.50;99.90
24436;DHT22;12616;52.470;13.436;2024-03-25T20:27:04;6.50;1.00
24436;DHT22;12616;52.470;13.436;2024-03-25T20:29:30;6.40;1.00
24436;DHT22;12616;52.470;13.436;2024-03-25T20:31:56;6.40;99.90
24436;DHT22;12616;52.470;13.436;2024-03-25T20:34:21;6.30;1.00
24436;DHT22;12616;52.470;13.436;2024-03-25T20:36:48;6.30;1.00
24436;DHT22;12616;52.470;13.436;2024-03-25T20:39:14;6.30;1.00
24436;DHT22;12616;52.470;13.436;2024-03-25T20:41:40;6.20;99.90
24436;DHT22;12616;52.470;13.436;2024-03-25T20:44:06;6.30;99.90
24436;DHT22;12616;52.470;13.436;2024-03-25T20:46:34;6.20;1.00
24436;DHT22;12616;52.470;13.436;2024-03-25T20:49:00;6.10;99.90
24436;DHT22;12616;52.470;13.436;2024-03-25T20:51:26;6.20;1.00
24436;DHT22;12616;52.470;13.436;2024-03-25T20:53:54;6.20;99.90
24436;DHT22;12616;52.470;13.436;2024-03-25T20:56:19;6.20;99.90
24436;DHT22;12616;52.470;13.436;2024-03-25T20:58:57;6.20;1.00
24436;DHT22;12616;52.470;13.436;2024-03-25T21:01:23;6.20;1.00
24436;DHT22;12616;52.470;13.436;2024-03-25T21:03:49;6.20;1.00
24436;DHT22;12616;52.470;13.436;2024-03-25T21:06:15;6.20;99.90
24436;DHT22;12616;52.470;13.436;2024-03-25T21:08:40;6.10;1.00
24436;DHT22;12616;52.470;13.436;2024-03-25T21:11:08;6.00;1.00
24436;DHT22;12616;52.470;13.436;2024-03-25T21:13:33;5.80;99.90
24436;DHT22;12616;52.470;13.436;2024-03-25T21:15:59;5.80;1.00
24436;DHT22;12616;52.470;13.436;2024-03-25T21:18:25;5.90;1.00
24436;DHT22;12616;52.470;13.436;2024-03-25T21:20:51;5.90;99.40
24436;DHT22;12616;52.470;13.436;2024-03-25T21:23:17;6.00;1.00
24436;DHT22;12616;52.470;13.436;2024-03-25T21:25:42;5.90;30.40
24436;DHT22;12616;52.470;13.436;2024-03-25T21:28:09;5.80;3.10
24436;DHT22;12616;52.470;13.436;2024-03-25T21:30:35;5.70;99.90
24436;DHT22;12616;52.470;13.436;2024-03-25T21:33:01;5.60;99.90
24436;DHT22;12616;52.470;13.436;2024-03-25T21:35:32;5.60;1.00
24436;DHT22;12616;52.470;13.436;2024-03-25T21:37:58;5.50;99.90
24436;DHT22;12616;52.470;13.436;2024-03-25T21:40:25;5.60;99.90
24436;DHT22;12616;52.470;13.436;2024-03-25T21:42:51;5.50;99.90
24436;DHT22;12616;52.470;13.436;2024-03-25T21:45:30;5.40;99.90
24436;DHT22;12616;52.470;13.436;2024-03-25T21:47:56;5.50;1.00
24436;DHT22;12616;52.470;13.436;2024-03-25T21:50:22;5.70;5.40
24436;DHT22;12616;52.470;13.436;2024-03-25T21:52:48;5.70;1.00
24436;DHT22;12616;52.470;13.436;2024-03-25T21:55:15;5.70;1.00
24436;DHT22;12616;52.470;13.436;2024-03-25T21:57:41;5.70;1.00
24436;DHT22;12616;52.470;13.436;2024-03-25T22:00:10;5.70;99.90
24436;DHT22;12616;52.470;13.436;2024-03-25T22:02:37;5.70;1.00
24436;DHT22;12616;52.470;13.436;2024-03-25T22:05:03;5.70;1.00
24436;DHT22;12616;52.470;13.436;2024-03-25T22:07:29;5.70;99.90
24436;DHT22;12616;52.470;13.436;2024-03-25T22:09:55;5.60;1.00
24436;DHT22;12616;52.470;13.436;2024-03-25T22:12:24;5.60;99.90
24436;DHT22;12616;52.470;13.436;2024-03-25T22:14:49;5.50;99.90
24436;DHT22;12616;52.470;13.436;2024-03-25T22:17:16;5.70;1.00
24436;DHT22;12616;52.470;13.436;2024-03-25T22:19:49;5.40;1.00
24436;DHT22;12616;52.470;13.436;2024-03-25T22:22:15;5.20;99.90
24436;DHT22;12616;52.470;13.436;2024-03-25T22:24:40;5.20;1.00
24436;DHT22;12616;52.470;13.436;2024-03-25T22:27:06;5.20;54.80
24436;DHT22;12616;52.470;13.436;2024-03-25T22:29:32;5.20;1.00
24436;DHT22;12616;52.470;13.436;2024-03-25T22:31:58;5.20;1.00
24436;DHT22;12616;52.470;13.436;2024-03-25T22:34:24;5.00;1.00
24436;DHT22;12616;52.470;13.436;2024-03-25T22:39:29;4.90;99.90
24436;DHT22;12616;52.470;13.436;2024-03-25T22:42:04;4.80;99.90
24436;DHT22;12616;52.470;13.436;2024-03-25T22:44:30;4.70;99.90
24436;DHT22;12616;52.470;13.436;2024-03-25T22:46:56;4.70;99.90
24436;DHT22;12616;52.470;13.436;2024-03-25T22:49:22;4.70;99.90
24436;DHT22;12616;52.470;13.436;2024-03-25T22:51:48;4.70;99.90
24436;DHT22;12616;52.470;13.436;2024-03-25T22:54:14;4.60;99.90
24436;DHT22;12616;52.470;13.436;2024-03-25T22:56:41;4.60;99.90
24436;DHT22;12616;52.470;13.436;2024-03-25T22:59:07;4.60;1.00
24436;DHT22;12616;52.470;13.436;2024-03-25T23:01:33;4.50;1.00
24436;DHT22;12616;52.470;13.436;2024-03-25T23:03:59;4.50;1.00
24436;DHT22;12616;52.470;13.436;2024-03-25T23:06:24;4.50;1.00
24436;DHT22;12616;52.470;13.436;2024-03-25T23:08:50;4.40;99.90
24436;DHT22;12616;52.470;13.436;2024-03-25T23:11:18;4.40;1.00
24436;DHT22;12616;52.470;13.436;2024-03-25T23:13:46;4.50;1.00
24436;DHT22;12616;52.470;13.436;2024-03-25T23:16:11;4.50;99.90
24436;DHT22;12616;52.470;13.436;2024-03-25T23:18:38;4.40;99.90
24436;DHT22;12616;52.470;13.436;2024-03-25T23:21:04;4.40;99.90
24436;DHT22;12616;52.470;13.436;2024-03-25T23:23:30;4.30;99.90
24436;DHT22;12616;52.470;13.436;2024-03-25T23:25:56;4.30;1.00
24436;DHT22;12616;52.470;13.436;2024-03-25T23:28:22;4.50;99.90
24436;DHT22;12616;52.470;13.436;2024-03-25T23:30:50;4.50;1.00
24436;DHT22;12616;52.470;13.436;2024-03-25T23:33:16;4.50;99.90
24436;DHT22;12616;52.470;13.436;2024-03-25T23:35:42;4.60;1.00
24436;DHT22;12616;52.470;13.436;2024-03-25T23:38:08;4.60;99.90
24436;DHT22;12616;52.470;13.436;2024-03-25T23:40:34;4.60;99.90
24436;DHT22;12616;52.470;13.436;2024-03-25T23:43:00;4.50;1.00
24436;DHT22;12616;52.470;13.436;2024-03-25T23:45:26;4.40;1.00
24436;DHT22;12616;52.470;13.436;2024-03-25T23:47:53;4.50;1.00
24436;DHT22;12616;52.470;13.436;2024-03-25T23:50:19;4.50;99.90
24436;DHT22;12616;52.470;13.436;2024-03-25T23:52:49;4.40;99.90
24436;DHT22;12616;52.470;13.436;2024-03-25T23:55:15;4.40;1.00
24436;DHT22;12616;52.470;13.436;2024-03-25T23:57:42;4.30;1.00
